Time;durP1;ratioP1;P1;durP2;ratioP2;P2;SDS_P1;SDS_P2;PMS_P1;PMS_P2;Temp;Humidity;BMP_temperature;BMP_pressure;BME280_temperature;BME280_humidity;BME280_pressure;Samples;Min_cycle;Max_cycle;Signal;HPM_P1;HPM_P2
2022/12/23 00:00:36;;;;;;;51.63;27.30;;;;;;;;;;5018961;28;20459;-81
2022/12/23 00:03:04;;;;;;;48.80;25.30;;;;;;;;;;5019415;28;20469;-81
2022/12/23 00:05:30;;;;;;;51.97;26.23;;;;;;;;;;5018770;28;20828;-81
2022/12/23 00:07:56;;;;;;;53.07;25.97;;;;;;;;;;5017405;28;20479;-81
2022/12/23 00:10:23;;;;;;;52.90;29.03;;;;;;;;;;5014276;28;20466;-81
2022/12/23 00:15:34;;;;;;;48.37;25.40;;;;;;;;;;4998018;28;20465;-81
2022/12/23 00:18:00;;;;;;;58.00;26.50;;;;;;;;;;5018644;28;20481;-81
2022/12/23 00:20:27;;;;;;;52.93;26.43;;;;;;;;;;5021750;28;20484;-81
2022/12/23 00:23:05;;;;;;;53.53;26.17;;;;;;;;;;5021900;28;20515;-81
2022/12/23 00:25:40;;;;;;;61.20;29.60;;;;;;;;;;5021088;28;20457;-81
2022/12/23 00:28:10;;;;;;;49.93;25.73;;;;;;;;;;5018516;28;20473;-81
2022/12/23 00:30:38;;;;;;;52.50;25.97;;;;;;;;;;5014179;28;20460;-81
2022/12/23 00:33:04;;;;;;;49.13;25.27;;;;;;;;;;5015271;28;20918;-81
2022/12/23 00:35:31;;;;;;;48.47;24.63;;;;;;;;;;5021769;28;20481;-81
2022/12/23 00:37:57;;;;;;;44.70;23.00;;;;;;;;;;5017151;28;20493;-81
2022/12/23 00:43:07;;;;;;;46.57;23.80;;;;;;;;;;5015630;28;20472;-81
2022/12/23 00:45:34;;;;;;;46.60;23.07;;;;;;;;;;5021513;28;20460;-81
2022/12/23 00:50:45;;;;;;;45.37;24.57;;;;;;;;;;5022514;28;20445;-81
2022/12/23 00:53:12;;;;;;;48.60;25.20;;;;;;;;;;5019881;28;21255;-81
2022/12/23 00:55:38;;;;;;;41.00;22.80;;;;;;;;;;5016657;28;20943;-81
2022/12/23 00:58:04;;;;;;;49.37;26.10;;;;;;;;;;5021981;28;20481;-81
2022/12/23 01:06:00;;;;;;;51.20;25.20;;;;;;;;;;5021205;28;20847;-81
2022/12/23 01:08:26;;;;;;;45.13;27.00;;;;;;;;;;5024184;28;20863;-81
2022/12/23 01:10:53;;;;;;;48.27;24.20;;;;;;;;;;5022923;28;20458;-81
2022/12/23 01:13:19;;;;;;;44.70;24.93;;;;;;;;;;5019975;28;20470;-81
2022/12/23 01:15:45;;;;;;;50.93;25.13;;;;;;;;;;5018401;28;20456;-81
2022/12/23 01:18:12;;;;;;;48.60;24.47;;;;;;;;;;5015885;28;20512;-81
2022/12/23 01:20:40;;;;;;;43.13;24.27;;;;;;;;;;5016976;28;20462;-81
2022/12/23 01:23:06;;;;;;;45.23;24.27;;;;;;;;;;5025440;28;20918;-81
2022/12/23 01:25:33;;;;;;;52.97;26.67;;;;;;;;;;5018604;28;20477;-81
2022/12/23 01:27:59;;;;;;;48.93;25.27;;;;;;;;;;5023644;28;20480;-81
2022/12/23 01:30:26;;;;;;;50.00;25.43;;;;;;;;;;5024334;28;20465;-81
2022/12/23 01:32:52;;;;;;;51.10;25.97;;;;;;;;;;5018976;28;20484;-81
2022/12/23 01:35:18;;;;;;;51.47;26.10;;;;;;;;;;5024983;28;20469;-81
2022/12/23 01:37:46;;;;;;;49.90;25.63;;;;;;;;;;5028467;28;20477;-81
2022/12/23 01:40:12;;;;;;;44.90;25.17;;;;;;;;;;5021382;28;20453;-81
2022/12/23 01:42:44;;;;;;;40.30;22.53;;;;;;;;;;5019458;28;20474;-81
2022/12/23 01:45:15;;;;;;;46.00;24.97;;;;;;;;;;5029508;28;20974;-81
2022/12/23 01:47:43;;;;;;;43.83;24.23;;;;;;;;;;5019259;28;20481;-81
2022/12/23 01:50:12;;;;;;;40.27;22.77;;;;;;;;;;5018209;28;20474;-81
2022/12/23 01:52:41;;;;;;;42.63;22.47;;;;;;;;;;5019482;28;20474;-81
2022/12/23 01:55:09;;;;;;;41.70;23.37;;;;;;;;;;5018644;28;20457;-81
2022/12/23 01:57:36;;;;;;;46.97;23.47;;;;;;;;;;5018696;28;20504;-81
2022/12/23 02:05:46;;;;;;;40.00;22.27;;;;;;;;;;4984811;28;20506;-81
2022/12/23 02:11:07;;;;;;;39.87;23.47;;;;;;;;;;4991495;28;20513;-81
2022/12/23 02:13:38;;;;;;;41.50;22.50;;;;;;;;;;5018065;28;20478;-82
2022/12/23 02:16:17;;;;;;;39.40;22.80;;;;;;;;;;5017280;28;20489;-81
2022/12/23 02:19:01;;;;;;;39.70;21.73;;;;;;;;;;5023816;28;20476;-81
2022/12/23 02:21:33;;;;;;;43.03;22.40;;;;;;;;;;5016259;28;20823;-81
2022/12/23 02:24:14;;;;;;;43.97;22.90;;;;;;;;;;5000387;28;20485;-81
2022/12/23 02:27:10;;;;;;;42.43;21.23;;;;;;;;;;5002721;28;20474;-82
2022/12/23 02:30:02;;;;;;;46.90;23.73;;;;;;;;;;4961530;29;20457;-81
2022/12/23 02:32:35;;;;;;;46.77;23.97;;;;;;;;;;5002657;28;20461;-81
2022/12/23 02:35:06;;;;;;;49.50;27.47;;;;;;;;;;4998228;28;20446;-81
2022/12/23 02:37:35;;;;;;;50.20;24.60;;;;;;;;;;5005107;28;20497;-81
2022/12/23 02:40:04;;;;;;;41.20;22.57;;;;;;;;;;5001718;28;20449;-81
2022/12/23 02:42:34;;;;;;;44.33;24.30;;;;;;;;;;4997880;28;20498;-81
2022/12/23 02:45:03;;;;;;;58.03;25.63;;;;;;;;;;5000234;28;20486;-81
2022/12/23 02:47:33;;;;;;;44.03;23.60;;;;;;;;;;4995679;28;20486;-81
2022/12/23 02:50:01;;;;;;;42.90;21.53;;;;;;;;;;5000726;28;20464;-81
2022/12/23 02:52:29;;;;;;;40.23;23.40;;;;;;;;;;5004968;28;20471;-81
2022/12/23 02:54:59;;;;;;;38.03;23.17;;;;;;;;;;4986353;28;20462;-81
2022/12/23 02:57:29;;;;;;;41.10;22.70;;;;;;;;;;4999866;28;20479;-81
2022/12/23 02:59:56;;;;;;;48.13;25.43;;;;;;;;;;4997622;28;20438;-81
2022/12/23 03:02:23;;;;;;;50.13;24.77;;;;;;;;;;5001207;28;20468;-81
2022/12/23 03:04:50;;;;;;;48.43;24.90;;;;;;;;;;4982026;28;20479;-81
2022/12/23 03:07:18;;;;;;;49.87;25.30;;;;;;;;;;4996904;28;20542;-81
2022/12/23 03:09:48;;;;;;;47.10;25.33;;;;;;;;;;4981216;28;20522;-81
2022/12/23 03:12:20;;;;;;;49.43;25.10;;;;;;;;;;4981619;28;20502;-81
2022/12/23 03:14:52;;;;;;;61.53;28.50;;;;;;;;;;5001807;28;20453;-81
2022/12/23 03:17:24;;;;;;;52.77;26.17;;;;;;;;;;4997837;28;20854;-81
2022/12/23 03:19:53;;;;;;;51.53;26.20;;;;;;;;;;5000828;28;20466;-81
2022/12/23 03:22:22;;;;;;;42.00;22.10;;;;;;;;;;5001335;28;20475;-81
2022/12/23 03:24:54;;;;;;;45.73;24.67;;;;;;;;;;4998388;28;20495;-81
2022/12/23 03:27:25;;;;;;;53.23;26.00;;;;;;;;;;5001383;28;20490;-81
2022/12/23 03:29:55;;;;;;;53.03;24.63;;;;;;;;;;5005065;28;20510;-81
2022/12/23 03:32:22;;;;;;;67.77;27.03;;;;;;;;;;4997084;28;20472;-82
2022/12/23 03:34:50;;;;;;;52.30;27.80;;;;;;;;;;4999048;28;20467;-81
2022/12/23 03:37:19;;;;;;;54.10;26.33;;;;;;;;;;5001578;28;20475;-81
2022/12/23 03:39:47;;;;;;;50.40;26.60;;;;;;;;;;5000852;28;20447;-81
2022/12/23 03:42:17;;;;;;;47.47;25.57;;;;;;;;;;5006935;28;21022;-81
2022/12/23 03:44:47;;;;;;;48.43;25.17;;;;;;;;;;5018361;28;20492;-81
2022/12/23 03:47:16;;;;;;;46.13;25.20;;;;;;;;;;5011702;28;20467;-81
2022/12/23 03:49:44;;;;;;;57.37;24.13;;;;;;;;;;4997216;28;20470;-81
2022/12/23 03:52:11;;;;;;;54.47;24.60;;;;;;;;;;4998652;28;20481;-82
2022/12/23 03:54:41;;;;;;;47.93;25.70;;;;;;;;;;4996597;28;20458;-81
2022/12/23 03:57:08;;;;;;;43.67;21.97;;;;;;;;;;4999243;28;20462;-81
2022/12/23 03:59:36;;;;;;;57.83;26.13;;;;;;;;;;5006848;28;20447;-81
2022/12/23 04:02:06;;;;;;;66.13;28.97;;;;;;;;;;4996447;28;20481;-81
2022/12/23 04:04:42;;;;;;;58.10;26.57;;;;;;;;;;4994665;28;21231;-81
2022/12/23 04:07:10;;;;;;;63.90;27.67;;;;;;;;;;4999184;28;21051;-81
2022/12/23 04:09:38;;;;;;;68.67;28.33;;;;;;;;;;5000701;28;20459;-81
2022/12/23 04:12:05;;;;;;;72.60;30.87;;;;;;;;;;4999982;28;20847;-81
2022/12/23 04:14:33;;;;;;;65.70;31.07;;;;;;;;;;5000694;28;20455;-81
2022/12/23 04:17:00;;;;;;;81.80;33.90;;;;;;;;;;5002375;28;20483;-81
2022/12/23 04:19:26;;;;;;;79.03;33.33;;;;;;;;;;5001699;28;20475;-81
2022/12/23 04:21:53;;;;;;;83.87;34.37;;;;;;;;;;5002318;28;21003;-82
2022/12/23 04:24:20;;;;;;;69.97;33.47;;;;;;;;;;5002142;28;20449;-81
2022/12/23 04:26:47;;;;;;;79.57;32.23;;;;;;;;;;4980427;28;20482;-81
2022/12/23 04:29:14;;;;;;;78.63;33.30;;;;;;;;;;4998507;28;20849;-81
2022/12/23 04:31:40;;;;;;;88.17;35.30;;;;;;;;;;4995223;28;21000;-81
2022/12/23 04:34:06;;;;;;;73.93;34.00;;;;;;;;;;5002206;28;20482;-81
2022/12/23 04:36:33;;;;;;;84.10;35.67;;;;;;;;;;5001393;28;20469;-81
2022/12/23 04:38:59;;;;;;;82.57;33.03;;;;;;;;;;4998881;28;20482;-81
2022/12/23 04:41:25;;;;;;;81.97;33.67;;;;;;;;;;5000935;28;20455;-81
2022/12/23 04:43:53;;;;;;;82.00;35.10;;;;;;;;;;4999284;28;20466;-81
2022/12/23 04:46:19;;;;;;;79.27;34.90;;;;;;;;;;4994655;28;20482;-81
2022/12/23 04:48:46;;;;;;;90.63;35.77;;;;;;;;;;4998781;28;20978;-81
2022/12/23 04:51:12;;;;;;;74.83;31.60;;;;;;;;;;5003232;28;20467;-81
2022/12/23 04:53:38;;;;;;;81.80;33.40;;;;;;;;;;5000760;28;20971;-81
2022/12/23 04:56:05;;;;;;;83.77;34.40;;;;;;;;;;5002977;28;20975;-81
2022/12/23 04:58:31;;;;;;;82.50;33.97;;;;;;;;;;5007222;28;20475;-81
2022/12/23 05:01:02;;;;;;;76.03;34.17;;;;;;;;;;4997303;28;20507;-81
2022/12/23 05:03:29;;;;;;;87.47;34.67;;;;;;;;;;4991140;28;20475;-81
2022/12/23 05:05:55;;;;;;;84.57;34.60;;;;;;;;;;4998934;28;20850;-81
2022/12/23 05:08:22;;;;;;;84.47;35.97;;;;;;;;;;5004215;28;21020;-81
2022/12/23 05:10:48;;;;;;;82.40;35.37;;;;;;;;;;4999891;28;20458;-81
2022/12/23 05:13:15;;;;;;;80.80;33.27;;;;;;;;;;5000119;28;20868;-81
2022/12/23 05:15:43;;;;;;;87.63;34.00;;;;;;;;;;5005687;28;20458;-81
2022/12/23 05:18:11;;;;;;;85.07;35.87;;;;;;;;;;5006523;28;20565;-81
2022/12/23 05:20:37;;;;;;;88.10;36.10;;;;;;;;;;5004236;28;20466;-82
2022/12/23 05:23:03;;;;;;;91.13;37.73;;;;;;;;;;5003253;28;20482;-81
2022/12/23 05:25:30;;;;;;;104.93;39.77;;;;;;;;;;5005997;28;20479;-81
2022/12/23 05:27:56;;;;;;;98.70;35.33;;;;;;;;;;5000983;28;20889;-81
2022/12/23 05:30:22;;;;;;;111.20;39.27;;;;;;;;;;5001952;28;20469;-82
2022/12/23 05:32:55;;;;;;;101.30;39.97;;;;;;;;;;5002283;28;20474;-81
2022/12/23 05:35:23;;;;;;;93.87;36.67;;;;;;;;;;4997310;28;20472;-82
2022/12/23 05:37:49;;;;;;;83.57;35.73;;;;;;;;;;5022355;28;20478;-81
2022/12/23 05:40:16;;;;;;;102.77;40.90;;;;;;;;;;5020513;28;20460;-81
2022/12/23 05:42:42;;;;;;;94.77;39.33;;;;;;;;;;5023435;28;20473;-81
2022/12/23 05:45:09;;;;;;;121.30;42.07;;;;;;;;;;5022162;28;20978;-81
2022/12/23 05:47:35;;;;;;;79.33;35.50;;;;;;;;;;5021665;28;20477;-81
2022/12/23 05:50:01;;;;;;;94.23;37.60;;;;;;;;;;5026990;28;20465;-81
2022/12/23 05:52:29;;;;;;;103.40;40.40;;;;;;;;;;5020620;28;20475;-81
2022/12/23 05:54:55;;;;;;;107.13;38.87;;;;;;;;;;5024378;28;20468;-82
2022/12/23 05:57:22;;;;;;;90.63;33.80;;;;;;;;;;5021671;28;20473;-82
2022/12/23 05:59:48;;;;;;;94.57;35.03;;;;;;;;;;5019215;28;20465;-82
2022/12/23 06:02:14;;;;;;;82.23;35.23;;;;;;;;;;5026479;28;20477;-82
2022/12/23 06:04:41;;;;;;;89.03;34.50;;;;;;;;;;5019526;28;20458;-82
2022/12/23 06:07:08;;;;;;;86.00;34.17;;;;;;;;;;5018988;28;20480;-81
2022/12/23 06:09:36;;;;;;;185.13;42.70;;;;;;;;;;5025917;28;20465;-81
2022/12/23 06:12:02;;;;;;;71.63;33.37;;;;;;;;;;5022167;28;20469;-82
2022/12/23 06:14:28;;;;;;;153.10;39.37;;;;;;;;;;5020512;28;20464;-81
2022/12/23 06:16:55;;;;;;;70.80;28.40;;;;;;;;;;5021478;28;20470;-81
2022/12/23 06:19:21;;;;;;;125.97;33.50;;;;;;;;;;5022337;28;20545;-82
2022/12/23 06:21:47;;;;;;;189.03;37.73;;;;;;;;;;5024544;28;20473;-82
2022/12/23 06:24:14;;;;;;;231.80;36.67;;;;;;;;;;5027403;28;20476;-82
2022/12/23 06:26:41;;;;;;;272.97;37.47;;;;;;;;;;5021628;28;20466;-81
2022/12/23 06:29:08;;;;;;;216.87;36.67;;;;;;;;;;5020523;28;20485;-82
2022/12/23 06:31:34;;;;;;;139.73;35.23;;;;;;;;;;5021903;28;20458;-81
2022/12/23 06:34:00;;;;;;;273.27;43.17;;;;;;;;;;5022482;28;20474;-81
2022/12/23 06:36:28;;;;;;;298.07;47.63;;;;;;;;;;5021391;28;20466;-82
2022/12/23 06:38:54;;;;;;;60.90;27.57;;;;;;;;;;5020812;28;20497;-81
2022/12/23 06:41:20;;;;;;;111.13;31.53;;;;;;;;;;5007514;28;20458;-82
2022/12/23 06:43:48;;;;;;;119.97;31.23;;;;;;;;;;5027889;28;20463;-82
2022/12/23 06:46:15;;;;;;;91.33;30.70;;;;;;;;;;5013303;28;20490;-81
2022/12/23 06:48:41;;;;;;;119.90;32.37;;;;;;;;;;5020832;28;20484;-81
2022/12/23 06:51:09;;;;;;;89.87;31.60;;;;;;;;;;5020724;28;20465;-81
2022/12/23 06:53:36;;;;;;;127.73;34.60;;;;;;;;;;5020698;28;20457;-82
2022/12/23 06:56:03;;;;;;;194.70;35.17;;;;;;;;;;5025843;28;20464;-82
2022/12/23 06:58:29;;;;;;;459.00;57.63;;;;;;;;;;5019550;28;20487;-82
2022/12/23 07:00:57;;;;;;;102.50;28.17;;;;;;;;;;5021999;28;20451;-82
2022/12/23 07:03:24;;;;;;;106.83;29.60;;;;;;;;;;5021812;28;20482;-83
2022/12/23 07:05:50;;;;;;;199.87;36.90;;;;;;;;;;5022919;28;21045;-82
2022/12/23 07:08:17;;;;;;;227.60;38.80;;;;;;;;;;5023378;28;20873;-82
2022/12/23 07:10:43;;;;;;;153.77;31.73;;;;;;;;;;5019154;28;20470;-82
2022/12/23 07:13:11;;;;;;;100.40;29.83;;;;;;;;;;5020806;28;20477;-82
2022/12/23 07:15:37;;;;;;;69.50;24.90;;;;;;;;;;5023738;28;20544;-82
2022/12/23 07:18:05;;;;;;;115.63;32.37;;;;;;;;;;5023617;28;20477;-81
2022/12/23 07:20:32;;;;;;;151.03;34.37;;;;;;;;;;5016805;28;20458;-82
2022/12/23 07:22:58;;;;;;;263.27;46.27;;;;;;;;;;5025215;28;20475;-81
2022/12/23 07:25:25;;;;;;;157.87;34.53;;;;;;;;;;5017437;28;20466;-80
2022/12/23 07:27:52;;;;;;;139.90;32.50;;;;;;;;;;5009750;28;20486;-80
2022/12/23 07:30:18;;;;;;;168.43;36.37;;;;;;;;;;5019753;28;20461;-80
2022/12/23 07:32:47;;;;;;;211.37;40.77;;;;;;;;;;5017179;28;20469;-80
2022/12/23 07:35:14;;;;;;;173.30;37.03;;;;;;;;;;5011092;28;20473;-80
2022/12/23 07:37:41;;;;;;;130.63;30.40;;;;;;;;;;5016832;28;20481;-80
2022/12/23 07:40:08;;;;;;;110.57;31.67;;;;;;;;;;5023306;28;20466;-81
2022/12/23 07:42:34;;;;;;;197.27;38.97;;;;;;;;;;5021825;28;20477;-80
2022/12/23 07:45:00;;;;;;;116.37;33.67;;;;;;;;;;5021402;28;20458;-79
2022/12/23 07:47:27;;;;;;;178.03;37.17;;;;;;;;;;5021989;28;20866;-82
2022/12/23 07:49:53;;;;;;;125.70;35.00;;;;;;;;;;5009115;28;20481;-81
2022/12/23 07:52:21;;;;;;;161.13;34.77;;;;;;;;;;5016263;28;20489;-82
2022/12/23 07:54:47;;;;;;;128.00;32.27;;;;;;;;;;5017828;28;20458;-81
2022/12/23 07:57:14;;;;;;;141.80;33.50;;;;;;;;;;5019109;28;20505;-81
2022/12/23 07:59:40;;;;;;;121.23;34.00;;;;;;;;;;5016167;28;20944;-80
2022/12/23 08:02:06;;;;;;;131.57;34.93;;;;;;;;;;5022667;28;20827;-81
2022/12/23 08:04:33;;;;;;;147.93;35.63;;;;;;;;;;5015951;28;20454;-81
2022/12/23 08:06:59;;;;;;;110.03;32.17;;;;;;;;;;5019701;28;20497;-81
2022/12/23 08:09:27;;;;;;;162.37;38.43;;;;;;;;;;5023952;28;20975;-81
2022/12/23 08:11:53;;;;;;;99.27;34.03;;;;;;;;;;5025788;28;20482;-80
2022/12/23 08:14:19;;;;;;;102.93;32.07;;;;;;;;;;5019299;28;20477;-81
2022/12/23 08:16:47;;;;;;;93.33;32.87;;;;;;;;;;5020525;28;20464;-80
2022/12/23 08:19:13;;;;;;;124.70;34.87;;;;;;;;;;5016538;28;20475;-80
2022/12/23 08:21:40;;;;;;;92.50;30.23;;;;;;;;;;5014006;28;20461;-80
2022/12/23 08:24:06;;;;;;;108.93;33.27;;;;;;;;;;5007958;28;20461;-79
2022/12/23 08:26:34;;;;;;;83.87;32.17;;;;;;;;;;5004316;28;20493;-79
2022/12/23 08:29:01;;;;;;;104.23;32.90;;;;;;;;;;5004992;28;20489;-79
2022/12/23 08:31:30;;;;;;;189.63;40.90;;;;;;;;;;4990505;28;20449;-79
2022/12/23 08:33:57;;;;;;;89.37;32.97;;;;;;;;;;5004602;28;20474;-80
2022/12/23 08:36:25;;;;;;;109.20;35.07;;;;;;;;;;5013255;28;20464;-80
2022/12/23 08:38:52;;;;;;;90.60;36.77;;;;;;;;;;5013405;28;20585;-80
2022/12/23 08:41:20;;;;;;;96.30;32.17;;;;;;;;;;5020803;28;20468;-80
2022/12/23 08:43:48;;;;;;;108.20;34.67;;;;;;;;;;5012295;28;20872;-80
2022/12/23 08:46:14;;;;;;;92.60;35.87;;;;;;;;;;5020831;28;20995;-80
2022/12/23 08:48:40;;;;;;;92.23;34.23;;;;;;;;;;5018736;28;20485;-81
2022/12/23 08:51:08;;;;;;;87.33;34.60;;;;;;;;;;5012722;28;20480;-80
2022/12/23 08:53:36;;;;;;;117.63;32.87;;;;;;;;;;5018723;28;20522;-81
2022/12/23 08:56:03;;;;;;;97.37;32.40;;;;;;;;;;5018402;28;20480;-81
2022/12/23 08:58:30;;;;;;;112.20;36.37;;;;;;;;;;5019296;28;20874;-80
2022/12/23 09:00:57;;;;;;;87.00;33.47;;;;;;;;;;5014752;28;20474;-81
2022/12/23 09:03:24;;;;;;;91.73;34.83;;;;;;;;;;5016175;28;20462;-81
2022/12/23 09:05:50;;;;;;;92.53;32.23;;;;;;;;;;5019510;28;21064;-80
2022/12/23 09:08:17;;;;;;;114.73;39.53;;;;;;;;;;5019759;28;20481;-80
2022/12/23 09:10:43;;;;;;;85.97;31.10;;;;;;;;;;5018991;28;20497;-80
2022/12/23 09:13:09;;;;;;;73.40;31.67;;;;;;;;;;5022825;28;20465;-80
2022/12/23 09:15:41;;;;;;;92.17;35.17;;;;;;;;;;5014928;28;20485;-81
2022/12/23 09:18:09;;;;;;;92.67;34.20;;;;;;;;;;5015641;28;20473;-80
2022/12/23 09:20:36;;;;;;;95.80;33.13;;;;;;;;;;5016522;28;20466;-80
2022/12/23 09:23:03;;;;;;;79.20;32.60;;;;;;;;;;5020108;28;20461;-80
2022/12/23 09:25:31;;;;;;;88.50;34.17;;;;;;;;;;5016586;28;20481;-80
2022/12/23 09:27:57;;;;;;;78.93;33.00;;;;;;;;;;5017323;28;20494;-81
2022/12/23 09:30:24;;;;;;;73.10;31.43;;;;;;;;;;5016733;28;21114;-80
2022/12/23 09:32:51;;;;;;;83.80;32.27;;;;;;;;;;5019794;28;20461;-80
2022/12/23 09:35:18;;;;;;;80.10;31.90;;;;;;;;;;5015286;28;20478;-80
2022/12/23 09:37:45;;;;;;;73.17;31.03;;;;;;;;;;5012352;28;20476;-81
2022/12/23 09:40:14;;;;;;;68.37;30.50;;;;;;;;;;5014168;28;20566;-80
2022/12/23 09:42:54;;;;;;;82.43;31.10;;;;;;;;;;5015833;28;20963;-80
2022/12/23 09:45:32;;;;;;;77.83;31.60;;;;;;;;;;5014534;28;20481;-80
2022/12/23 09:47:59;;;;;;;67.80;31.27;;;;;;;;;;5011453;28;20481;-80
2022/12/23 09:50:29;;;;;;;74.53;29.57;;;;;;;;;;5013089;28;20502;-82
2022/12/23 09:53:00;;;;;;;82.17;31.83;;;;;;;;;;5017931;28;20462;-80
2022/12/23 09:55:29;;;;;;;77.00;29.73;;;;;;;;;;5017339;28;20484;-81
2022/12/23 09:57:59;;;;;;;75.13;31.00;;;;;;;;;;5026219;28;20474;-81
2022/12/23 10:00:28;;;;;;;90.03;33.47;;;;;;;;;;5023231;28;21267;-81
2022/12/23 10:03:03;;;;;;;64.20;27.47;;;;;;;;;;5020522;28;20472;-80
2022/12/23 10:05:35;;;;;;;76.77;29.97;;;;;;;;;;5016357;28;20842;-80
2022/12/23 10:08:04;;;;;;;65.33;28.67;;;;;;;;;;5018612;28;20481;-81
2022/12/23 10:10:33;;;;;;;70.67;30.13;;;;;;;;;;5019315;28;20474;-80
2022/12/23 10:13:01;;;;;;;75.80;31.67;;;;;;;;;;5020504;28;20461;-81
2022/12/23 10:15:29;;;;;;;78.53;29.70;;;;;;;;;;5019264;28;20492;-80
2022/12/23 10:17:59;;;;;;;76.43;30.97;;;;;;;;;;5018222;28;20889;-81
2022/12/23 10:20:31;;;;;;;67.90;28.47;;;;;;;;;;5018009;28;20496;-80
2022/12/23 10:22:59;;;;;;;63.33;27.63;;;;;;;;;;5023948;28;20450;-81
2022/12/23 10:25:28;;;;;;;78.30;31.00;;;;;;;;;;5022013;28;21530;-80
2022/12/23 10:27:55;;;;;;;68.33;29.77;;;;;;;;;;5025650;28;20477;-81
2022/12/23 10:30:23;;;;;;;82.20;28.90;;;;;;;;;;5022468;28;20485;-81
2022/12/23 10:32:55;;;;;;;68.20;29.27;;;;;;;;;;5020516;28;20806;-81
2022/12/23 10:35:26;;;;;;;72.20;31.10;;;;;;;;;;5020506;28;20469;-80
2022/12/23 10:37:56;;;;;;;59.90;28.30;;;;;;;;;;5019086;28;20484;-80
2022/12/23 10:40:26;;;;;;;56.73;27.27;;;;;;;;;;5016765;28;20485;-80
2022/12/23 10:42:58;;;;;;;67.07;29.67;;;;;;;;;;5019872;28;20449;-80
2022/12/23 10:45:39;;;;;;;65.87;30.47;;;;;;;;;;5012951;28;20482;-81
2022/12/23 10:48:13;;;;;;;69.80;29.10;;;;;;;;;;5016698;28;20481;-80
2022/12/23 10:50:52;;;;;;;74.73;30.77;;;;;;;;;;5016936;28;20492;-80
2022/12/23 10:53:26;;;;;;;63.67;29.87;;;;;;;;;;5019326;28;20461;-80
2022/12/23 10:55:54;;;;;;;76.47;29.77;;;;;;;;;;5014795;28;20479;-81
2022/12/23 10:58:21;;;;;;;63.23;26.27;;;;;;;;;;5015115;28;20485;-80
2022/12/23 11:00:50;;;;;;;68.37;30.70;;;;;;;;;;5014126;28;20485;-80
2022/12/23 11:03:18;;;;;;;78.47;31.70;;;;;;;;;;5021548;28;20813;-80
2022/12/23 11:05:45;;;;;;;71.83;30.07;;;;;;;;;;5018733;28;20482;-80
2022/12/23 11:08:11;;;;;;;69.40;30.53;;;;;;;;;;5015723;28;20905;-80
2022/12/23 11:10:39;;;;;;;77.30;30.00;;;;;;;;;;5018501;28;20488;-79
2022/12/23 11:13:06;;;;;;;68.23;29.03;;;;;;;;;;4996353;28;20466;-80
2022/12/23 11:15:33;;;;;;;73.10;31.33;;;;;;;;;;5014644;28;20478;-80
2022/12/23 11:18:01;;;;;;;58.60;28.87;;;;;;;;;;5013671;28;20482;-81
2022/12/23 11:20:27;;;;;;;74.60;28.87;;;;;;;;;;5016456;28;20481;-80
2022/12/23 11:22:54;;;;;;;60.87;27.00;;;;;;;;;;5015844;28;20450;-80
2022/12/23 11:25:32;;;;;;;63.60;28.40;;;;;;;;;;5017934;28;20498;-80
2022/12/23 11:27:59;;;;;;;63.17;26.87;;;;;;;;;;5016436;28;20488;-80
2022/12/23 11:30:27;;;;;;;63.67;27.20;;;;;;;;;;5019101;28;20469;-80
2022/12/23 11:32:53;;;;;;;57.93;25.80;;;;;;;;;;5017146;28;20461;-81
2022/12/23 11:35:24;;;;;;;63.17;24.37;;;;;;;;;;5018914;28;20892;-80
2022/12/23 11:37:51;;;;;;;54.10;24.33;;;;;;;;;;5018052;28;20481;-80
2022/12/23 11:40:22;;;;;;;53.30;23.80;;;;;;;;;;5014243;28;20478;-80
2022/12/23 11:42:52;;;;;;;51.87;23.27;;;;;;;;;;5015532;28;20477;-80
2022/12/23 11:45:23;;;;;;;61.70;25.63;;;;;;;;;;5012467;28;20478;-78
2022/12/23 11:47:51;;;;;;;62.40;26.20;;;;;;;;;;5016415;28;20498;-80
2022/12/23 11:50:26;;;;;;;67.00;27.80;;;;;;;;;;5019080;28;20478;-80
2022/12/23 11:52:54;;;;;;;64.80;26.27;;;;;;;;;;5013692;28;20499;-80
2022/12/23 11:55:23;;;;;;;46.20;23.37;;;;;;;;;;5015806;28;20496;-80
2022/12/23 11:57:51;;;;;;;53.47;28.37;;;;;;;;;;5015905;28;20485;-80
2022/12/23 12:00:19;;;;;;;48.10;23.63;;;;;;;;;;4995971;28;20480;-80
2022/12/23 12:02:46;;;;;;;57.97;25.30;;;;;;;;;;5013510;28;20517;-80
2022/12/23 12:05:21;;;;;;;43.23;22.10;;;;;;;;;;5000485;28;20477;-80
2022/12/23 12:07:48;;;;;;;59.17;25.27;;;;;;;;;;5016570;28;20488;-80
2022/12/23 12:10:17;;;;;;;55.53;23.87;;;;;;;;;;4999089;28;20929;-80
2022/12/23 12:12:44;;;;;;;48.47;22.70;;;;;;;;;;5014466;28;20466;-80
2022/12/23 12:15:20;;;;;;;50.83;26.40;;;;;;;;;;5020751;28;20535;-80
2022/12/23 12:17:51;;;;;;;51.37;24.70;;;;;;;;;;5011929;28;21092;-80
2022/12/23 12:20:24;;;;;;;53.73;23.57;;;;;;;;;;5015785;28;21042;-80
2022/12/23 12:22:52;;;;;;;54.13;25.67;;;;;;;;;;5014421;28;20454;-79
2022/12/23 12:25:20;;;;;;;57.47;25.50;;;;;;;;;;5011751;28;20490;-79
2022/12/23 12:27:51;;;;;;;61.53;25.37;;;;;;;;;;5008779;28;20489;-80
2022/12/23 12:30:19;;;;;;;49.17;23.40;;;;;;;;;;5009133;28;21004;-79
2022/12/23 12:32:48;;;;;;;51.73;23.87;;;;;;;;;;5018315;28;20464;-79
2022/12/23 12:35:17;;;;;;;49.90;22.70;;;;;;;;;;5004436;28;21216;-79
2022/12/23 12:37:49;;;;;;;56.70;24.60;;;;;;;;;;5012514;28;20556;-79
2022/12/23 12:40:21;;;;;;;50.60;22.53;;;;;;;;;;5007775;28;20466;-79
2022/12/23 12:42:52;;;;;;;41.87;22.73;;;;;;;;;;5011763;28;20826;-80
2022/12/23 12:45:20;;;;;;;57.33;25.43;;;;;;;;;;5009115;28;20477;-79
2022/12/23 12:47:49;;;;;;;50.17;22.27;;;;;;;;;;5008293;28;20493;-79
2022/12/23 12:50:17;;;;;;;47.60;24.83;;;;;;;;;;5003042;28;20477;-80
2022/12/23 12:52:44;;;;;;;46.30;23.80;;;;;;;;;;5007353;28;20968;-80
2022/12/23 12:55:15;;;;;;;47.17;23.43;;;;;;;;;;5015925;28;21021;-80
2022/12/23 12:57:41;;;;;;;44.30;23.63;;;;;;;;;;5009875;28;20484;-79
2022/12/23 13:00:16;;;;;;;55.87;25.20;;;;;;;;;;5007054;28;20844;-79
2022/12/23 13:02:51;;;;;;;53.13;23.40;;;;;;;;;;5004333;28;21233;-80
2022/12/23 13:05:24;;;;;;;50.23;23.50;;;;;;;;;;5002406;28;20529;-79
2022/12/23 13:07:56;;;;;;;42.43;23.00;;;;;;;;;;5010264;28;20494;-80
2022/12/23 13:10:28;;;;;;;47.67;23.90;;;;;;;;;;4987805;28;20867;-79
2022/12/23 13:12:58;;;;;;;48.97;23.97;;;;;;;;;;5007126;28;20461;-79
2022/12/23 13:15:29;;;;;;;43.97;22.97;;;;;;;;;;5005403;28;20473;-79
2022/12/23 13:18:07;;;;;;;53.10;25.47;;;;;;;;;;5006505;28;20856;-80
2022/12/23 13:20:36;;;;;;;54.50;23.13;;;;;;;;;;5002676;28;20474;-79
2022/12/23 13:23:10;;;;;;;49.57;24.77;;;;;;;;;;5010496;28;20454;-79
2022/12/23 13:25:41;;;;;;;46.33;23.07;;;;;;;;;;5007254;28;21014;-80
2022/12/23 13:28:13;;;;;;;56.87;25.17;;;;;;;;;;5008548;28;20494;-79
2022/12/23 13:30:44;;;;;;;50.17;24.50;;;;;;;;;;5009703;28;20477;-79
2022/12/23 13:33:14;;;;;;;57.10;25.37;;;;;;;;;;5005971;28;20484;-79
2022/12/23 13:35:47;;;;;;;42.73;22.73;;;;;;;;;;5005762;28;20481;-79
2022/12/23 13:38:23;;;;;;;40.43;23.70;;;;;;;;;;5009841;28;20474;-79
2022/12/23 13:40:55;;;;;;;48.50;23.63;;;;;;;;;;5011619;28;21026;-79
2022/12/23 13:43:23;;;;;;;50.07;25.07;;;;;;;;;;5010265;28;20457;-79
2022/12/23 13:45:51;;;;;;;47.90;23.33;;;;;;;;;;4997048;28;20492;-79
2022/12/23 13:48:27;;;;;;;45.67;22.37;;;;;;;;;;5009198;28;20505;-79
2022/12/23 13:50:57;;;;;;;44.17;22.37;;;;;;;;;;5008762;28;20474;-79
2022/12/23 13:53:26;;;;;;;41.60;21.77;;;;;;;;;;5009540;28;20463;-80
2022/12/23 13:56:02;;;;;;;47.90;24.40;;;;;;;;;;5014605;28;21150;-80
2022/12/23 13:58:30;;;;;;;52.70;25.63;;;;;;;;;;5013547;28;20864;-79
2022/12/23 14:00:57;;;;;;;46.20;24.07;;;;;;;;;;5010016;28;20481;-79
2022/12/23 14:03:24;;;;;;;50.63;23.80;;;;;;;;;;5013310;28;20462;-79
2022/12/23 14:05:52;;;;;;;42.13;23.40;;;;;;;;;;5007923;28;20480;-80
2022/12/23 14:08:24;;;;;;;50.40;24.03;;;;;;;;;;5007101;28;20489;-80
2022/12/23 14:10:51;;;;;;;45.93;23.87;;;;;;;;;;5006082;28;21042;-79
2022/12/23 14:13:19;;;;;;;45.87;21.00;;;;;;;;;;5009491;28;20458;-79
2022/12/23 14:16:01;;;;;;;54.87;26.90;;;;;;;;;;5007866;28;20477;-79
2022/12/23 14:18:39;;;;;;;46.97;23.90;;;;;;;;;;5010945;28;20481;-79
2022/12/23 14:21:09;;;;;;;48.23;24.60;;;;;;;;;;5011003;28;20473;-79
2022/12/23 14:23:41;;;;;;;49.50;24.83;;;;;;;;;;5015845;28;20450;-79
2022/12/23 14:26:16;;;;;;;44.67;23.17;;;;;;;;;;5006915;28;20481;-79
2022/12/23 14:28:54;;;;;;;45.00;24.03;;;;;;;;;;5001575;28;21025;-80
2022/12/23 14:31:31;;;;;;;46.90;26.30;;;;;;;;;;5007942;28;20474;-79
2022/12/23 14:34:05;;;;;;;48.17;27.03;;;;;;;;;;5006387;28;20469;-80
2022/12/23 14:36:31;;;;;;;47.37;25.10;;;;;;;;;;5013255;28;20982;-79
2022/12/23 14:39:16;;;;;;;56.43;27.70;;;;;;;;;;4993286;28;20482;-80
2022/12/23 14:41:48;;;;;;;51.37;26.60;;;;;;;;;;5008852;28;20458;-81
2022/12/23 14:44:21;;;;;;;52.83;27.83;;;;;;;;;;5011974;28;20864;-79